sensor_id;sensor_type;location;lat;lon;timestamp;P1;durP1;ratioP1;P2;durP2;ratioP2
23614;SDS011;11985;49.404;7.734;2023-05-23T00:02:16;60.33;;;36.22;;
23614;SDS011;11985;49.404;7.734;2023-05-23T00:07:17;66.55;;;39.45;;
23614;SDS011;11985;49.404;7.734;2023-05-23T00:12:20;60.53;;;36.60;;
23614;SDS011;11985;49.404;7.734;2023-05-23T00:17:23;62.90;;;37.22;;
23614;SDS011;11985;49.404;7.734;2023-05-23T00:22:25;67.80;;;38.53;;
23614;SDS011;11985;49.404;7.734;2023-05-23T00:27:26;62.60;;;39.53;;
23614;SDS011;11985;49.404;7.734;2023-05-23T00:32:30;64.15;;;38.30;;
23614;SDS011;11985;49.404;7.734;2023-05-23T00:37:31;54.17;;;36.97;;
23614;SDS011;11985;49.404;7.734;2023-05-23T00:42:33;63.03;;;37.30;;
23614;SDS011;11985;49.404;7.734;2023-05-23T00:47:36;48.22;;;31.10;;
23614;SDS011;11985;49.404;7.734;2023-05-23T00:52:38;53.70;;;30.48;;
23614;SDS011;11985;49.404;7.734;2023-05-23T00:57:40;51.60;;;31.40;;
23614;SDS011;11985;49.404;7.734;2023-05-23T01:02:45;55.72;;;35.25;;
23614;SDS011;11985;49.404;7.734;2023-05-23T01:07:50;65.78;;;41.50;;
23614;SDS011;11985;49.404;7.734;2023-05-23T01:12:55;65.53;;;39.28;;
23614;SDS011;11985;49.404;7.734;2023-05-23T01:18:08;67.45;;;40.97;;
23614;SDS011;11985;49.404;7.734;2023-05-23T01:23:23;73.13;;;43.53;;
23614;SDS011;11985;49.404;7.734;2023-05-23T01:28:39;67.15;;;42.53;;
23614;SDS011;11985;49.404;7.734;2023-05-23T01:33:45;67.95;;;41.20;;
23614;SDS011;11985;49.404;7.734;2023-05-23T01:38:49;64.10;;;41.60;;
23614;SDS011;11985;49.404;7.734;2023-05-23T01:43:52;66.95;;;42.33;;
23614;SDS011;11985;49.404;7.734;2023-05-23T01:48:54;58.85;;;41.13;;
23614;SDS011;11985;49.404;7.734;2023-05-23T01:53:57;63.10;;;39.53;;
23614;SDS011;11985;49.404;7.734;2023-05-23T01:59:00;59.78;;;39.83;;
23614;SDS011;11985;49.404;7.734;2023-05-23T02:04:03;60.15;;;38.65;;
23614;SDS011;11985;49.404;7.734;2023-05-23T02:09:04;56.08;;;37.03;;
23614;SDS011;11985;49.404;7.734;2023-05-23T02:14:09;59.08;;;37.78;;
23614;SDS011;11985;49.404;7.734;2023-05-23T02:19:11;61.00;;;38.92;;
23614;SDS011;11985;49.404;7.734;2023-05-23T02:24:13;54.90;;;36.05;;
23614;SDS011;11985;49.404;7.734;2023-05-23T02:29:16;58.63;;;36.22;;
23614;SDS011;11985;49.404;7.734;2023-05-23T02:34:17;59.08;;;37.72;;
23614;SDS011;11985;49.404;7.734;2023-05-23T02:39:19;54.85;;;35.35;;
23614;SDS011;11985;49.404;7.734;2023-05-23T02:44:22;60.88;;;36.30;;
23614;SDS011;11985;49.404;7.734;2023-05-23T02:49:23;58.38;;;36.63;;
23614;SDS011;11985;49.404;7.734;2023-05-23T02:54:25;56.08;;;37.20;;
23614;SDS011;11985;49.404;7.734;2023-05-23T02:59:28;59.45;;;36.90;;
23614;SDS011;11985;49.404;7.734;2023-05-23T03:04:30;56.20;;;35.40;;
23614;SDS011;11985;49.404;7.734;2023-05-23T03:09:31;53.60;;;35.75;;
23614;SDS011;11985;49.404;7.734;2023-05-23T03:14:35;54.28;;;36.88;;
23614;SDS011;11985;49.404;7.734;2023-05-23T03:19:37;57.88;;;36.75;;
23614;SDS011;11985;49.404;7.734;2023-05-23T03:24:38;60.33;;;37.80;;
23614;SDS011;11985;49.404;7.734;2023-05-23T03:29:41;50.53;;;33.65;;
23614;SDS011;11985;49.404;7.734;2023-05-23T03:34:43;52.20;;;33.30;;
23614;SDS011;11985;49.404;7.734;2023-05-23T03:39:45;52.35;;;34.58;;
23614;SDS011;11985;49.404;7.734;2023-05-23T03:44:47;53.70;;;34.30;;
23614;SDS011;11985;49.404;7.734;2023-05-23T03:49:49;49.35;;;32.85;;
23614;SDS011;11985;49.404;7.734;2023-05-23T03:54:51;53.15;;;31.13;;
23614;SDS011;11985;49.404;7.734;2023-05-23T03:59:54;41.40;;;28.08;;
23614;SDS011;11985;49.404;7.734;2023-05-23T04:04:55;35.40;;;25.83;;
23614;SDS011;11985;49.404;7.734;2023-05-23T04:09:57;35.78;;;24.33;;
23614;SDS011;11985;49.404;7.734;2023-05-23T04:15:00;34.45;;;23.52;;
23614;SDS011;11985;49.404;7.734;2023-05-23T04:20:01;36.00;;;22.73;;
23614;SDS011;11985;49.404;7.734;2023-05-23T04:25:05;32.50;;;22.38;;
23614;SDS011;11985;49.404;7.734;2023-05-23T04:30:08;38.35;;;24.38;;
23614;SDS011;11985;49.404;7.734;2023-05-23T04:35:10;33.30;;;23.02;;
23614;SDS011;11985;49.404;7.734;2023-05-23T04:40:12;35.78;;;23.92;;
23614;SDS011;11985;49.404;7.734;2023-05-23T04:45:15;37.17;;;23.95;;
23614;SDS011;11985;49.404;7.734;2023-05-23T04:50:16;31.88;;;21.95;;
23614;SDS011;11985;49.404;7.734;2023-05-23T04:55:21;32.00;;;22.17;;
23614;SDS011;11985;49.404;7.734;2023-05-23T05:00:24;34.22;;;22.13;;
23614;SDS011;11985;49.404;7.734;2023-05-23T05:05:25;34.15;;;21.80;;
23614;SDS011;11985;49.404;7.734;2023-05-23T05:10:27;28.73;;;19.88;;
23614;SDS011;11985;49.404;7.734;2023-05-23T05:15:30;29.02;;;19.33;;
23614;SDS011;11985;49.404;7.734;2023-05-23T05:20:32;26.30;;;18.25;;
23614;SDS011;11985;49.404;7.734;2023-05-23T05:25:34;24.73;;;17.23;;
23614;SDS011;11985;49.404;7.734;2023-05-23T05:30:38;21.67;;;15.38;;
23614;SDS011;11985;49.404;7.734;2023-05-23T05:35:41;24.25;;;16.05;;
23614;SDS011;11985;49.404;7.734;2023-05-23T05:40:42;22.40;;;14.77;;
23614;SDS011;11985;49.404;7.734;2023-05-23T05:45:45;24.30;;;13.25;;
23614;SDS011;11985;49.404;7.734;2023-05-23T05:50:46;21.65;;;13.65;;
23614;SDS011;11985;49.404;7.734;2023-05-23T05:55:48;21.48;;;13.25;;
23614;SDS011;11985;49.404;7.734;2023-05-23T06:00:51;19.60;;;13.43;;
23614;SDS011;11985;49.404;7.734;2023-05-23T06:05:53;20.13;;;13.20;;
23614;SDS011;11985;49.404;7.734;2023-05-23T06:10:56;17.95;;;12.55;;
23614;SDS011;11985;49.404;7.734;2023-05-23T06:15:59;18.33;;;12.20;;
23614;SDS011;11985;49.404;7.734;2023-05-23T06:21:00;16.70;;;12.27;;
23614;SDS011;11985;49.404;7.734;2023-05-23T06:26:02;21.48;;;12.48;;
23614;SDS011;11985;49.404;7.734;2023-05-23T06:31:08;17.35;;;11.82;;
23614;SDS011;11985;49.404;7.734;2023-05-23T06:36:09;17.67;;;11.48;;
23614;SDS011;11985;49.404;7.734;2023-05-23T06:41:11;15.93;;;10.45;;
23614;SDS011;11985;49.404;7.734;2023-05-23T06:46:14;18.13;;;10.73;;
23614;SDS011;11985;49.404;7.734;2023-05-23T06:51:15;17.50;;;11.45;;
23614;SDS011;11985;49.404;7.734;2023-05-23T06:56:17;15.57;;;10.55;;
23614;SDS011;11985;49.404;7.734;2023-05-23T07:01:20;17.63;;;9.45;;
23614;SDS011;11985;49.404;7.734;2023-05-23T07:06:21;12.93;;;8.18;;
23614;SDS011;11985;49.404;7.734;2023-05-23T07:11:23;11.27;;;8.18;;
23614;SDS011;11985;49.404;7.734;2023-05-23T07:16:26;10.68;;;7.25;;
23614;SDS011;11985;49.404;7.734;2023-05-23T07:21:28;11.77;;;7.05;;
23614;SDS011;11985;49.404;7.734;2023-05-23T07:26:30;10.13;;;6.30;;
23614;SDS011;11985;49.404;7.734;2023-05-23T07:31:33;12.98;;;6.00;;
23614;SDS011;11985;49.404;7.734;2023-05-23T07:36:34;6.72;;;5.15;;
23614;SDS011;11985;49.404;7.734;2023-05-23T07:41:36;7.25;;;5.03;;
23614;SDS011;11985;49.404;7.734;2023-05-23T07:46:39;6.03;;;4.28;;
23614;SDS011;11985;49.404;7.734;2023-05-23T07:51:41;5.22;;;4.03;;
23614;SDS011;11985;49.404;7.734;2023-05-23T07:56:42;5.22;;;3.90;;
23614;SDS011;11985;49.404;7.734;2023-05-23T08:01:45;6.05;;;4.10;;
23614;SDS011;11985;49.404;7.734;2023-05-23T08:06:49;6.63;;;4.10;;
23614;SDS011;11985;49.404;7.734;2023-05-23T08:11:51;5.88;;;4.05;;
23614;SDS011;11985;49.404;7.734;2023-05-23T08:16:54;8.10;;;4.60;;
23614;SDS011;11985;49.404;7.734;2023-05-23T08:21:55;7.40;;;4.57;;
23614;SDS011;11985;49.404;7.734;2023-05-23T08:26:57;6.93;;;5.07;;
23614;SDS011;11985;49.404;7.734;2023-05-23T08:32:00;6.30;;;4.90;;
23614;SDS011;11985;49.404;7.734;2023-05-23T08:37:01;8.05;;;5.47;;
23614;SDS011;11985;49.404;7.734;2023-05-23T08:42:03;9.10;;;5.40;;
23614;SDS011;11985;49.404;7.734;2023-05-23T08:47:06;7.60;;;5.90;;
23614;SDS011;11985;49.404;7.734;2023-05-23T08:52:09;8.60;;;5.90;;
23614;SDS011;11985;49.404;7.734;2023-05-23T08:57:12;7.50;;;6.33;;
23614;SDS011;11985;49.404;7.734;2023-05-23T09:02:16;9.10;;;6.35;;
23614;SDS011;11985;49.404;7.734;2023-05-23T09:07:18;10.75;;;6.75;;
23614;SDS011;11985;49.404;7.734;2023-05-23T09:12:20;7.68;;;5.22;;
23614;SDS011;11985;49.404;7.734;2023-05-23T09:17:23;6.40;;;5.20;;
23614;SDS011;11985;49.404;7.734;2023-05-23T09:22:26;6.03;;;4.60;;
23614;SDS011;11985;49.404;7.734;2023-05-23T09:27:28;7.00;;;4.90;;
23614;SDS011;11985;49.404;7.734;2023-05-23T09:32:31;7.25;;;5.25;;
23614;SDS011;11985;49.404;7.734;2023-05-23T09:37:33;7.65;;;4.55;;
23614;SDS011;11985;49.404;7.734;2023-05-23T09:42:40;5.28;;;4.63;;
23614;SDS011;11985;49.404;7.734;2023-05-23T09:47:49;5.70;;;4.25;;
23614;SDS011;11985;49.404;7.734;2023-05-23T09:52:51;5.20;;;4.15;;
23614;SDS011;11985;49.404;7.734;2023-05-23T09:57:53;5.70;;;4.18;;
23614;SDS011;11985;49.404;7.734;2023-05-23T10:03:07;4.13;;;3.72;;
23614;SDS011;11985;49.404;7.734;2023-05-23T10:08:13;5.03;;;3.78;;
23614;SDS011;11985;49.404;7.734;2023-05-23T10:13:16;5.32;;;3.92;;
23614;SDS011;11985;49.404;7.734;2023-05-23T10:18:20;4.18;;;3.45;;
23614;SDS011;11985;49.404;7.734;2023-05-23T10:23:25;5.10;;;3.85;;
23614;SDS011;11985;49.404;7.734;2023-05-23T10:28:28;4.90;;;4.35;;
23614;SDS011;11985;49.404;7.734;2023-05-23T10:33:32;5.60;;;4.28;;
23614;SDS011;11985;49.404;7.734;2023-05-23T10:38:41;7.63;;;4.13;;
23614;SDS011;11985;49.404;7.734;2023-05-23T10:43:51;7.28;;;4.72;;
23614;SDS011;11985;49.404;7.734;2023-05-23T10:49:02;5.88;;;4.68;;
23614;SDS011;11985;49.404;7.734;2023-05-23T10:54:10;5.18;;;4.65;;
23614;SDS011;11985;49.404;7.734;2023-05-23T10:59:18;5.97;;;4.63;;
23614;SDS011;11985;49.404;7.734;2023-05-23T11:04:25;6.47;;;4.90;;
23614;SDS011;11985;49.404;7.734;2023-05-23T11:09:27;9.57;;;5.82;;
23614;SDS011;11985;49.404;7.734;2023-05-23T11:14:32;8.35;;;5.30;;
23614;SDS011;11985;49.404;7.734;2023-05-23T11:19:57;8.13;;;5.95;;
23614;SDS011;11985;49.404;7.734;2023-05-23T11:25:00;8.82;;;5.63;;
23614;SDS011;11985;49.404;7.734;2023-05-23T11:30:03;7.70;;;5.40;;
23614;SDS011;11985;49.404;7.734;2023-05-23T11:35:09;7.68;;;5.43;;
23614;SDS011;11985;49.404;7.734;2023-05-23T11:40:23;8.80;;;6.43;;
23614;SDS011;11985;49.404;7.734;2023-05-23T11:45:27;8.38;;;6.28;;
23614;SDS011;11985;49.404;7.734;2023-05-23T11:50:32;8.27;;;5.90;;
23614;SDS011;11985;49.404;7.734;2023-05-23T11:55:33;9.70;;;6.03;;
23614;SDS011;11985;49.404;7.734;2023-05-23T12:00:41;8.00;;;5.40;;
23614;SDS011;11985;49.404;7.734;2023-05-23T12:05:44;7.50;;;5.65;;
23614;SDS011;11985;49.404;7.734;2023-05-23T12:10:50;9.13;;;6.50;;
23614;SDS011;11985;49.404;7.734;2023-05-23T12:15:53;11.05;;;5.90;;
23614;SDS011;11985;49.404;7.734;2023-05-23T12:20:59;8.98;;;6.03;;
23614;SDS011;11985;49.404;7.734;2023-05-23T12:26:03;7.90;;;6.28;;
23614;SDS011;11985;49.404;7.734;2023-05-23T12:31:12;8.10;;;6.50;;
23614;SDS011;11985;49.404;7.734;2023-05-23T12:36:21;8.70;;;5.80;;
23614;SDS011;11985;49.404;7.734;2023-05-23T12:41:24;8.63;;;6.20;;
23614;SDS011;11985;49.404;7.734;2023-05-23T12:46:27;9.70;;;6.28;;
23614;SDS011;11985;49.404;7.734;2023-05-23T12:51:30;10.68;;;6.53;;
23614;SDS011;11985;49.404;7.734;2023-05-23T12:56:31;7.35;;;6.05;;
23614;SDS011;11985;49.404;7.734;2023-05-23T13:01:33;11.65;;;6.30;;
23614;SDS011;11985;49.404;7.734;2023-05-23T13:06:36;9.98;;;6.70;;
23614;SDS011;11985;49.404;7.734;2023-05-23T13:11:38;8.82;;;6.97;;
23614;SDS011;11985;49.404;7.734;2023-05-23T13:16:41;13.95;;;8.57;;
23614;SDS011;11985;49.404;7.734;2023-05-23T13:21:45;9.20;;;7.35;;
23614;SDS011;11985;49.404;7.734;2023-05-23T13:26:47;14.75;;;7.88;;
23614;SDS011;11985;49.404;7.734;2023-05-23T13:31:49;10.85;;;7.45;;
23614;SDS011;11985;49.404;7.734;2023-05-23T13:36:53;9.60;;;7.25;;
23614;SDS011;11985;49.404;7.734;2023-05-23T13:41:55;10.90;;;6.78;;
23614;SDS011;11985;49.404;7.734;2023-05-23T13:46:56;11.52;;;6.93;;
23614;SDS011;11985;49.404;7.734;2023-05-23T13:52:08;10.68;;;7.35;;
23614;SDS011;11985;49.404;7.734;2023-05-23T13:57:10;10.25;;;7.35;;
23614;SDS011;11985;49.404;7.734;2023-05-23T14:02:11;8.20;;;7.15;;
23614;SDS011;11985;49.404;7.734;2023-05-23T14:07:16;9.20;;;7.20;;
23614;SDS011;11985;49.404;7.734;2023-05-23T14:17:19;12.15;;;8.10;;
23614;SDS011;11985;49.404;7.734;2023-05-23T14:22:22;8.02;;;5.85;;
23614;SDS011;11985;49.404;7.734;2023-05-23T14:27:25;13.52;;;6.90;;
23614;SDS011;11985;49.404;7.734;2023-05-23T14:32:27;11.40;;;6.95;;
23614;SDS011;11985;49.404;7.734;2023-05-23T14:37:30;10.68;;;6.50;;
23614;SDS011;11985;49.404;7.734;2023-05-23T14:42:31;11.57;;;7.78;;
23614;SDS011;11985;49.404;7.734;2023-05-23T14:47:33;11.45;;;7.35;;
23614;SDS011;11985;49.404;7.734;2023-05-23T14:52:37;12.10;;;7.65;;
23614;SDS011;11985;49.404;7.734;2023-05-23T14:57:39;11.38;;;8.10;;
23614;SDS011;11985;49.404;7.734;2023-05-23T15:02:40;10.60;;;7.43;;
23614;SDS011;11985;49.404;7.734;2023-05-23T15:07:43;11.75;;;7.20;;
23614;SDS011;11985;49.404;7.734;2023-05-23T15:12:45;9.05;;;6.40;;
23614;SDS011;11985;49.404;7.734;2023-05-23T15:17:46;9.63;;;6.18;;
23614;SDS011;11985;49.404;7.734;2023-05-23T15:22:50;8.05;;;5.85;;
23614;SDS011;11985;49.404;7.734;2023-05-23T15:27:52;8.20;;;5.22;;
23614;SDS011;11985;49.404;7.734;2023-05-23T15:32:53;8.32;;;5.22;;
23614;SDS011;11985;49.404;7.734;2023-05-23T15:37:56;7.13;;;5.03;;
23614;SDS011;11985;49.404;7.734;2023-05-23T15:42:58;9.27;;;5.15;;
23614;SDS011;11985;49.404;7.734;2023-05-23T15:47:59;7.75;;;5.40;;
23614;SDS011;11985;49.404;7.734;2023-05-23T15:53:02;9.73;;;6.07;;
23614;SDS011;11985;49.404;7.734;2023-05-23T15:58:04;8.95;;;5.30;;
23614;SDS011;11985;49.404;7.734;2023-05-23T16:03:06;9.95;;;6.47;;
23614;SDS011;11985;49.404;7.734;2023-05-23T16:08:09;9.50;;;6.82;;
23614;SDS011;11985;49.404;7.734;2023-05-23T16:13:10;9.52;;;6.65;;
23614;SDS011;11985;49.404;7.734;2023-05-23T16:18:13;12.98;;;7.75;;
23614;SDS011;11985;49.404;7.734;2023-05-23T16:23:16;12.77;;;7.47;;
23614;SDS011;11985;49.404;7.734;2023-05-23T16:28:18;13.05;;;8.48;;
23614;SDS011;11985;49.404;7.734;2023-05-23T16:33:21;18.85;;;8.25;;
23614;SDS011;11985;49.404;7.734;2023-05-23T16:38:23;12.00;;;8.13;;
23614;SDS011;11985;49.404;7.734;2023-05-23T16:43:25;18.80;;;7.68;;
23614;SDS011;11985;49.404;7.734;2023-05-23T16:48:27;14.52;;;8.77;;
23614;SDS011;11985;49.404;7.734;2023-05-23T16:53:30;10.32;;;7.40;;
23614;SDS011;11985;49.404;7.734;2023-05-23T16:58:31;13.23;;;8.45;;
23614;SDS011;11985;49.404;7.734;2023-05-23T17:03:37;18.90;;;8.13;;
23614;SDS011;11985;49.404;7.734;2023-05-23T17:08:41;15.75;;;7.75;;
23614;SDS011;11985;49.404;7.734;2023-05-23T17:13:43;14.48;;;9.02;;
23614;SDS011;11985;49.404;7.734;2023-05-23T17:18:44;15.13;;;8.52;;
23614;SDS011;11985;49.404;7.734;2023-05-23T17:23:47;13.48;;;8.02;;
23614;SDS011;11985;49.404;7.734;2023-05-23T17:28:49;13.55;;;8.32;;
23614;SDS011;11985;49.404;7.734;2023-05-23T17:33:51;13.45;;;8.38;;
23614;SDS011;11985;49.404;7.734;2023-05-23T17:38:54;13.80;;;8.15;;
23614;SDS011;11985;49.404;7.734;2023-05-23T17:43:55;13.98;;;7.72;;
23614;SDS011;11985;49.404;7.734;2023-05-23T17:48:57;13.15;;;7.82;;
23614;SDS011;11985;49.404;7.734;2023-05-23T17:54:00;13.82;;;7.80;;
23614;SDS011;11985;49.404;7.734;2023-05-23T17:59:03;21.27;;;9.27;;
23614;SDS011;11985;49.404;7.734;2023-05-23T18:04:05;11.00;;;7.93;;
23614;SDS011;11985;49.404;7.734;2023-05-23T18:09:08;10.05;;;7.38;;
23614;SDS011;11985;49.404;7.734;2023-05-23T18:14:09;12.07;;;8.15;;
23614;SDS011;11985;49.404;7.734;2023-05-23T18:19:11;11.20;;;7.20;;
23614;SDS011;11985;49.404;7.734;2023-05-23T18:24:14;11.88;;;8.30;;
23614;SDS011;11985;49.404;7.734;2023-05-23T18:29:16;13.27;;;7.35;;
23614;SDS011;11985;49.404;7.734;2023-05-23T18:34:19;13.10;;;7.53;;
23614;SDS011;11985;49.404;7.734;2023-05-23T18:39:24;12.88;;;7.68;;
23614;SDS011;11985;49.404;7.734;2023-05-23T18:44:27;11.98;;;7.38;;
23614;SDS011;11985;49.404;7.734;2023-05-23T18:49:28;16.15;;;8.38;;
23614;SDS011;11985;49.404;7.734;2023-05-23T18:54:32;15.82;;;7.68;;
23614;SDS011;11985;49.404;7.734;2023-05-23T18:59:33;10.82;;;7.00;;
23614;SDS011;11985;49.404;7.734;2023-05-23T19:04:35;13.20;;;8.05;;
23614;SDS011;11985;49.404;7.734;2023-05-23T19:09:38;13.10;;;8.43;;
23614;SDS011;11985;49.404;7.734;2023-05-23T19:14:39;14.70;;;9.57;;
23614;SDS011;11985;49.404;7.734;2023-05-23T19:19:41;23.85;;;13.68;;
23614;SDS011;11985;49.404;7.734;2023-05-23T19:24:44;19.45;;;12.45;;
23614;SDS011;11985;49.404;7.734;2023-05-23T19:29:45;16.73;;;11.43;;
23614;SDS011;11985;49.404;7.734;2023-05-23T19:34:47;23.42;;;13.30;;
23614;SDS011;11985;49.404;7.734;2023-05-23T19:39:50;23.65;;;12.75;;
23614;SDS011;11985;49.404;7.734;2023-05-23T19:44:51;21.60;;;13.30;;
23614;SDS011;11985;49.404;7.734;2023-05-23T19:49:53;19.83;;;13.35;;
23614;SDS011;11985;49.404;7.734;2023-05-23T19:54:56;18.35;;;13.65;;
23614;SDS011;11985;49.404;7.734;2023-05-23T19:59:57;22.70;;;12.88;;
23614;SDS011;11985;49.404;7.734;2023-05-23T20:04:59;22.67;;;12.88;;
23614;SDS011;11985;49.404;7.734;2023-05-23T20:10:02;21.48;;;14.35;;
23614;SDS011;11985;49.404;7.734;2023-05-23T20:15:05;21.83;;;13.50;;
23614;SDS011;11985;49.404;7.734;2023-05-23T20:20:07;19.73;;;13.35;;
23614;SDS011;11985;49.404;7.734;2023-05-23T20:25:10;22.00;;;14.18;;
23614;SDS011;11985;49.404;7.734;2023-05-23T20:30:12;22.80;;;14.10;;
23614;SDS011;11985;49.404;7.734;2023-05-23T20:35:14;20.48;;;13.80;;
23614;SDS011;11985;49.404;7.734;2023-05-23T20:40:19;23.52;;;14.82;;
23614;SDS011;11985;49.404;7.734;2023-05-23T20:45:22;22.85;;;14.77;;
23614;SDS011;11985;49.404;7.734;2023-05-23T20:50:23;20.42;;;14.15;;
23614;SDS011;11985;49.404;7.734;2023-05-23T20:55:27;24.70;;;14.90;;
23614;SDS011;11985;49.404;7.734;2023-05-23T21:00:28;20.80;;;14.77;;
23614;SDS011;11985;49.404;7.734;2023-05-23T21:05:30;21.60;;;13.90;;
23614;SDS011;11985;49.404;7.734;2023-05-23T21:10:33;19.08;;;14.35;;
23614;SDS011;11985;49.404;7.734;2023-05-23T21:15:34;27.67;;;15.68;;
23614;SDS011;11985;49.404;7.734;2023-05-23T21:20:36;27.85;;;15.13;;
23614;SDS011;11985;49.404;7.734;2023-05-23T21:25:39;24.98;;;14.43;;
23614;SDS011;11985;49.404;7.734;2023-05-23T21:30:40;21.52;;;14.70;;
23614;SDS011;11985;49.404;7.734;2023-05-23T21:35:42;23.40;;;14.80;;
23614;SDS011;11985;49.404;7.734;2023-05-23T21:40:45;22.23;;;14.43;;
23614;SDS011;11985;49.404;7.734;2023-05-23T21:45:47;22.73;;;15.10;;
23614;SDS011;11985;49.404;7.734;2023-05-23T21:50:48;26.42;;;15.13;;
23614;SDS011;11985;49.404;7.734;2023-05-23T21:55:51;22.88;;;15.00;;
23614;SDS011;11985;49.404;7.734;2023-05-23T22:00:53;23.23;;;14.18;;
23614;SDS011;11985;49.404;7.734;2023-05-23T22:05:54;21.20;;;13.77;;
23614;SDS011;11985;49.404;7.734;2023-05-23T22:10:57;24.45;;;13.77;;
23614;SDS011;11985;49.404;7.734;2023-05-23T22:15:59;22.75;;;13.68;;
23614;SDS011;11985;49.404;7.734;2023-05-23T22:21:01;18.70;;;13.02;;
23614;SDS011;11985;49.404;7.734;2023-05-23T22:26:04;22.48;;;13.45;;
23614;SDS011;11985;49.404;7.734;2023-05-23T22:31:07;19.90;;;12.83;;
23614;SDS011;11985;49.404;7.734;2023-05-23T22:36:08;22.60;;;13.10;;
23614;SDS011;11985;49.404;7.734;2023-05-23T22:41:11;19.85;;;12.32;;
23614;SDS011;11985;49.404;7.734;2023-05-23T22:46:14;21.70;;;12.90;;
23614;SDS011;11985;49.404;7.734;2023-05-23T22:51:16;22.60;;;13.52;;
23614;SDS011;11985;49.404;7.734;2023-05-23T22:56:20;22.92;;;14.20;;
23614;SDS011;11985;49.404;7.734;2023-05-23T23:01:21;21.95;;;13.88;;
23614;SDS011;11985;49.404;7.734;2023-05-23T23:06:23;26.67;;;13.93;;
23614;SDS011;11985;49.404;7.734;2023-05-23T23:11:26;25.25;;;15.00;;
23614;SDS011;11985;49.404;7.734;2023-05-23T23:16:28;21.88;;;13.48;;
23614;SDS011;11985;49.404;7.734;2023-05-23T23:21:30;26.15;;;14.80;;
23614;SDS011;11985;49.404;7.734;2023-05-23T23:26:33;23.55;;;15.23;;
23614;SDS011;11985;49.404;7.734;2023-05-23T23:31:34;22.60;;;14.45;;
23614;SDS011;11985;49.404;7.734;2023-05-23T23:36:36;26.60;;;14.18;;
23614;SDS011;11985;49.404;7.734;2023-05-23T23:41:40;23.45;;;13.52;;
23614;SDS011;11985;49.404;7.734;2023-05-23T23:46:41;26.77;;;14.93;;
23614;SDS011;11985;49.404;7.734;2023-05-23T23:51:43;20.60;;;13.32;;
23614;SDS011;11985;49.404;7.734;2023-05-23T23:56:46;20.48;;;13.60;;
